sensor_id;sensor_type;location;lat;lon;timestamp;P1;durP1;ratioP1;P2;durP2;ratioP2
52542;SDS011;38449;52.696;6.186;2022-07-21T00:00:56;19.10;;;10.02;;
52542;SDS011;38449;52.696;6.186;2022-07-21T00:03:22;19.10;;;10.23;;
52542;SDS011;38449;52.696;6.186;2022-07-21T00:05:47;17.00;;;10.55;;
52542;SDS011;38449;52.696;6.186;2022-07-21T00:08:13;16.15;;;10.55;;
52542;SDS011;38449;52.696;6.186;2022-07-21T00:10:39;16.45;;;11.32;;
52542;SDS011;38449;52.696;6.186;2022-07-21T00:13:05;20.95;;;12.27;;
52542;SDS011;38449;52.696;6.186;2022-07-21T00:15:31;17.35;;;12.50;;
52542;SDS011;38449;52.696;6.186;2022-07-21T00:17:57;19.90;;;12.80;;
52542;SDS011;38449;52.696;6.186;2022-07-21T00:20:24;23.33;;;12.98;;
52542;SDS011;38449;52.696;6.186;2022-07-21T00:22:52;21.15;;;14.30;;
52542;SDS011;38449;52.696;6.186;2022-07-21T00:25:19;15.50;;;12.65;;
52542;SDS011;38449;52.696;6.186;2022-07-21T00:27:45;21.55;;;13.85;;
52542;SDS011;38449;52.696;6.186;2022-07-21T00:30:11;18.20;;;14.85;;
52542;SDS011;38449;52.696;6.186;2022-07-21T00:32:38;20.80;;;16.38;;
52542;SDS011;38449;52.696;6.186;2022-07-21T00:35:04;18.58;;;14.73;;
52542;SDS011;38449;52.696;6.186;2022-07-21T00:37:31;20.38;;;17.13;;
52542;SDS011;38449;52.696;6.186;2022-07-21T00:39:57;21.45;;;18.45;;
52542;SDS011;38449;52.696;6.186;2022-07-21T00:42:24;21.73;;;18.23;;
52542;SDS011;38449;52.696;6.186;2022-07-21T00:44:51;23.10;;;20.10;;
52542;SDS011;38449;52.696;6.186;2022-07-21T00:47:22;22.73;;;20.13;;
52542;SDS011;38449;52.696;6.186;2022-07-21T00:49:49;27.33;;;20.10;;
52542;SDS011;38449;52.696;6.186;2022-07-21T00:52:15;26.05;;;21.73;;
52542;SDS011;38449;52.696;6.186;2022-07-21T00:54:42;24.40;;;21.02;;
52542;SDS011;38449;52.696;6.186;2022-07-21T00:57:08;25.08;;;20.90;;
52542;SDS011;38449;52.696;6.186;2022-07-21T00:59:35;26.23;;;22.08;;
52542;SDS011;38449;52.696;6.186;2022-07-21T01:02:01;27.08;;;22.38;;
52542;SDS011;38449;52.696;6.186;2022-07-21T01:04:27;28.42;;;22.90;;
52542;SDS011;38449;52.696;6.186;2022-07-21T01:06:53;25.45;;;22.75;;
52542;SDS011;38449;52.696;6.186;2022-07-21T01:09:20;26.38;;;23.42;;
52542;SDS011;38449;52.696;6.186;2022-07-21T01:11:46;28.17;;;23.42;;
52542;SDS011;38449;52.696;6.186;2022-07-21T01:14:12;27.73;;;24.92;;
52542;SDS011;38449;52.696;6.186;2022-07-21T01:16:39;28.73;;;25.10;;
52542;SDS011;38449;52.696;6.186;2022-07-21T01:19:06;28.02;;;24.65;;
52542;SDS011;38449;52.696;6.186;2022-07-21T01:24:02;30.48;;;26.98;;
52542;SDS011;38449;52.696;6.186;2022-07-21T01:26:29;30.73;;;26.58;;
52542;SDS011;38449;52.696;6.186;2022-07-21T01:28:56;33.05;;;28.65;;
52542;SDS011;38449;52.696;6.186;2022-07-21T01:31:23;29.58;;;26.63;;
52542;SDS011;38449;52.696;6.186;2022-07-21T01:33:49;32.00;;;28.55;;
52542;SDS011;38449;52.696;6.186;2022-07-21T01:36:15;32.33;;;28.90;;
52542;SDS011;38449;52.696;6.186;2022-07-21T01:38:41;33.33;;;29.95;;
52542;SDS011;38449;52.696;6.186;2022-07-21T01:41:25;34.63;;;30.23;;
52542;SDS011;38449;52.696;6.186;2022-07-21T01:43:54;35.28;;;31.52;;
52542;SDS011;38449;52.696;6.186;2022-07-21T01:46:28;34.17;;;30.58;;
52542;SDS011;38449;52.696;6.186;2022-07-21T01:48:55;35.35;;;31.25;;
52542;SDS011;38449;52.696;6.186;2022-07-21T01:51:21;33.40;;;29.85;;
52542;SDS011;38449;52.696;6.186;2022-07-21T01:53:47;35.00;;;31.20;;
52542;SDS011;38449;52.696;6.186;2022-07-21T01:56:13;36.10;;;32.38;;
52542;SDS011;38449;52.696;6.186;2022-07-21T01:58:39;33.45;;;30.15;;
52542;SDS011;38449;52.696;6.186;2022-07-21T02:01:05;34.60;;;31.13;;
52542;SDS011;38449;52.696;6.186;2022-07-21T02:03:31;35.33;;;31.50;;
52542;SDS011;38449;52.696;6.186;2022-07-21T02:06:00;35.45;;;31.77;;
52542;SDS011;38449;52.696;6.186;2022-07-21T02:08:30;34.47;;;30.77;;
52542;SDS011;38449;52.696;6.186;2022-07-21T02:10:56;33.92;;;30.27;;
52542;SDS011;38449;52.696;6.186;2022-07-21T02:13:22;35.42;;;31.80;;
52542;SDS011;38449;52.696;6.186;2022-07-21T02:15:48;33.45;;;29.85;;
52542;SDS011;38449;52.696;6.186;2022-07-21T02:18:14;34.45;;;30.83;;
52542;SDS011;38449;52.696;6.186;2022-07-21T02:20:39;34.45;;;30.95;;
52542;SDS011;38449;52.696;6.186;2022-07-21T02:23:07;33.88;;;30.17;;
52542;SDS011;38449;52.696;6.186;2022-07-21T02:25:32;34.17;;;30.67;;
52542;SDS011;38449;52.696;6.186;2022-07-21T02:27:58;34.85;;;30.98;;
52542;SDS011;38449;52.696;6.186;2022-07-21T02:30:24;35.60;;;31.17;;
52542;SDS011;38449;52.696;6.186;2022-07-21T02:32:50;34.88;;;31.33;;
52542;SDS011;38449;52.696;6.186;2022-07-21T02:35:15;36.05;;;31.02;;
52542;SDS011;38449;52.696;6.186;2022-07-21T02:37:41;34.63;;;31.02;;
52542;SDS011;38449;52.696;6.186;2022-07-21T02:40:07;35.45;;;30.80;;
52542;SDS011;38449;52.696;6.186;2022-07-21T02:42:33;34.38;;;30.90;;
52542;SDS011;38449;52.696;6.186;2022-07-21T02:44:59;34.28;;;30.55;;
52542;SDS011;38449;52.696;6.186;2022-07-21T02:47:24;33.80;;;30.30;;
52542;SDS011;38449;52.696;6.186;2022-07-21T02:49:50;33.22;;;29.85;;
52542;SDS011;38449;52.696;6.186;2022-07-21T02:52:15;32.78;;;29.42;;
52542;SDS011;38449;52.696;6.186;2022-07-21T02:54:41;33.88;;;30.38;;
52542;SDS011;38449;52.696;6.186;2022-07-21T02:57:07;31.02;;;27.70;;
52542;SDS011;38449;52.696;6.186;2022-07-21T02:59:32;30.85;;;27.75;;
52542;SDS011;38449;52.696;6.186;2022-07-21T03:01:58;30.77;;;27.58;;
52542;SDS011;38449;52.696;6.186;2022-07-21T03:04:24;31.33;;;28.02;;
52542;SDS011;38449;52.696;6.186;2022-07-21T03:06:49;30.25;;;27.10;;
52542;SDS011;38449;52.696;6.186;2022-07-21T03:09:15;29.90;;;26.80;;
52542;SDS011;38449;52.696;6.186;2022-07-21T03:11:41;29.42;;;26.38;;
52542;SDS011;38449;52.696;6.186;2022-07-21T03:14:09;26.98;;;24.30;;
52542;SDS011;38449;52.696;6.186;2022-07-21T03:16:35;26.60;;;23.88;;
52542;SDS011;38449;52.696;6.186;2022-07-21T03:19:00;26.75;;;23.85;;
52542;SDS011;38449;52.696;6.186;2022-07-21T03:21:26;24.95;;;21.95;;
52542;SDS011;38449;52.696;6.186;2022-07-21T03:23:52;26.02;;;22.90;;
52542;SDS011;38449;52.696;6.186;2022-07-21T03:26:17;25.95;;;23.08;;
52542;SDS011;38449;52.696;6.186;2022-07-21T03:28:43;24.27;;;21.85;;
52542;SDS011;38449;52.696;6.186;2022-07-21T03:31:09;22.90;;;20.50;;
52542;SDS011;38449;52.696;6.186;2022-07-21T03:33:34;23.25;;;20.75;;
52542;SDS011;38449;52.696;6.186;2022-07-21T03:36:00;23.80;;;21.27;;
52542;SDS011;38449;52.696;6.186;2022-07-21T03:38:26;25.50;;;21.52;;
52542;SDS011;38449;52.696;6.186;2022-07-21T03:40:52;22.48;;;20.17;;
52542;SDS011;38449;52.696;6.186;2022-07-21T03:43:18;24.08;;;21.15;;
52542;SDS011;38449;52.696;6.186;2022-07-21T03:45:44;23.95;;;20.98;;
52542;SDS011;38449;52.696;6.186;2022-07-21T03:48:10;23.40;;;21.00;;
52542;SDS011;38449;52.696;6.186;2022-07-21T03:50:37;23.63;;;21.13;;
52542;SDS011;38449;52.696;6.186;2022-07-21T03:53:05;23.50;;;20.85;;
52542;SDS011;38449;52.696;6.186;2022-07-21T03:55:31;26.38;;;22.00;;
52542;SDS011;38449;52.696;6.186;2022-07-21T03:57:58;23.75;;;21.25;;
52542;SDS011;38449;52.696;6.186;2022-07-21T04:00:27;25.42;;;21.40;;
52542;SDS011;38449;52.696;6.186;2022-07-21T04:02:57;25.20;;;22.70;;
52542;SDS011;38449;52.696;6.186;2022-07-21T04:05:24;25.48;;;22.88;;
52542;SDS011;38449;52.696;6.186;2022-07-21T04:07:50;25.67;;;23.02;;
52542;SDS011;38449;52.696;6.186;2022-07-21T04:10:18;24.73;;;22.10;;
52542;SDS011;38449;52.696;6.186;2022-07-21T04:12:46;26.35;;;22.50;;
52542;SDS011;38449;52.696;6.186;2022-07-21T04:15:12;27.20;;;24.42;;
52542;SDS011;38449;52.696;6.186;2022-07-21T04:17:38;26.23;;;23.52;;
52542;SDS011;38449;52.696;6.186;2022-07-21T04:20:05;26.85;;;24.00;;
52542;SDS011;38449;52.696;6.186;2022-07-21T04:22:31;26.88;;;24.08;;
52542;SDS011;38449;52.696;6.186;2022-07-21T04:24:57;28.55;;;25.50;;
52542;SDS011;38449;52.696;6.186;2022-07-21T04:27:24;26.40;;;23.75;;
52542;SDS011;38449;52.696;6.186;2022-07-21T04:29:50;28.88;;;25.60;;
52542;SDS011;38449;52.696;6.186;2022-07-21T04:32:16;27.20;;;24.45;;
52542;SDS011;38449;52.696;6.186;2022-07-21T04:34:42;28.42;;;25.60;;
52542;SDS011;38449;52.696;6.186;2022-07-21T04:37:08;27.40;;;24.60;;
52542;SDS011;38449;52.696;6.186;2022-07-21T04:39:33;26.80;;;24.02;;
52542;SDS011;38449;52.696;6.186;2022-07-21T04:41:59;26.90;;;23.38;;
52542;SDS011;38449;52.696;6.186;2022-07-21T04:44:25;25.92;;;22.80;;
52542;SDS011;38449;52.696;6.186;2022-07-21T04:46:50;25.75;;;22.77;;
52542;SDS011;38449;52.696;6.186;2022-07-21T04:49:16;24.75;;;22.13;;
52542;SDS011;38449;52.696;6.186;2022-07-21T04:51:42;25.23;;;22.73;;
52542;SDS011;38449;52.696;6.186;2022-07-21T04:54:07;25.85;;;22.67;;
52542;SDS011;38449;52.696;6.186;2022-07-21T04:56:33;23.75;;;21.45;;
52542;SDS011;38449;52.696;6.186;2022-07-21T04:58:59;24.20;;;21.80;;
52542;SDS011;38449;52.696;6.186;2022-07-21T05:01:28;24.13;;;21.25;;
52542;SDS011;38449;52.696;6.186;2022-07-21T05:03:54;23.20;;;20.80;;
52542;SDS011;38449;52.696;6.186;2022-07-21T05:06:20;22.70;;;20.38;;
52542;SDS011;38449;52.696;6.186;2022-07-21T05:08:45;22.02;;;19.80;;
52542;SDS011;38449;52.696;6.186;2022-07-21T05:11:12;22.60;;;19.33;;
52542;SDS011;38449;52.696;6.186;2022-07-21T05:13:38;21.10;;;18.90;;
52542;SDS011;38449;52.696;6.186;2022-07-21T05:16:04;20.15;;;18.15;;
52542;SDS011;38449;52.696;6.186;2022-07-21T05:18:30;20.67;;;18.50;;
52542;SDS011;38449;52.696;6.186;2022-07-21T05:20:57;19.80;;;17.67;;
52542;SDS011;38449;52.696;6.186;2022-07-21T05:23:22;21.73;;;17.55;;
52542;SDS011;38449;52.696;6.186;2022-07-21T05:25:48;19.30;;;17.02;;
52542;SDS011;38449;52.696;6.186;2022-07-21T05:28:15;19.02;;;17.02;;
52542;SDS011;38449;52.696;6.186;2022-07-21T05:30:41;18.42;;;16.52;;
52542;SDS011;38449;52.696;6.186;2022-07-21T05:33:06;18.52;;;16.73;;
52542;SDS011;38449;52.696;6.186;2022-07-21T05:35:32;19.52;;;17.10;;
52542;SDS011;38449;52.696;6.186;2022-07-21T05:37:58;21.17;;;16.52;;
52542;SDS011;38449;52.696;6.186;2022-07-21T05:40:24;19.75;;;17.65;;
52542;SDS011;38449;52.696;6.186;2022-07-21T05:42:50;17.90;;;16.20;;
52542;SDS011;38449;52.696;6.186;2022-07-21T05:45:15;18.33;;;16.45;;
52542;SDS011;38449;52.696;6.186;2022-07-21T05:47:41;19.77;;;17.63;;
52542;SDS011;38449;52.696;6.186;2022-07-21T05:50:07;20.10;;;18.00;;
52542;SDS011;38449;52.696;6.186;2022-07-21T05:52:33;19.80;;;17.80;;
52542;SDS011;38449;52.696;6.186;2022-07-21T05:54:59;20.65;;;18.45;;
52542;SDS011;38449;52.696;6.186;2022-07-21T05:57:25;20.83;;;18.73;;
52542;SDS011;38449;52.696;6.186;2022-07-21T05:59:51;22.55;;;20.02;;
52542;SDS011;38449;52.696;6.186;2022-07-21T06:02:17;21.67;;;19.13;;
52542;SDS011;38449;52.696;6.186;2022-07-21T06:04:43;21.10;;;18.85;;
52542;SDS011;38449;52.696;6.186;2022-07-21T06:07:08;20.65;;;18.52;;
52542;SDS011;38449;52.696;6.186;2022-07-21T06:09:34;21.75;;;19.17;;
52542;SDS011;38449;52.696;6.186;2022-07-21T06:12:00;22.77;;;20.35;;
52542;SDS011;38449;52.696;6.186;2022-07-21T06:14:26;21.42;;;19.27;;
52542;SDS011;38449;52.696;6.186;2022-07-21T06:16:52;22.27;;;19.95;;
52542;SDS011;38449;52.696;6.186;2022-07-21T06:19:17;22.08;;;19.63;;
52542;SDS011;38449;52.696;6.186;2022-07-21T06:21:43;23.80;;;21.27;;
52542;SDS011;38449;52.696;6.186;2022-07-21T06:24:10;22.17;;;19.80;;
52542;SDS011;38449;52.696;6.186;2022-07-21T06:26:36;24.48;;;21.67;;
52542;SDS011;38449;52.696;6.186;2022-07-21T06:29:03;22.65;;;20.25;;
52542;SDS011;38449;52.696;6.186;2022-07-21T06:31:29;23.83;;;21.42;;
52542;SDS011;38449;52.696;6.186;2022-07-21T06:33:55;22.33;;;19.73;;
52542;SDS011;38449;52.696;6.186;2022-07-21T06:36:20;24.20;;;21.65;;
52542;SDS011;38449;52.696;6.186;2022-07-21T06:38:46;24.70;;;21.83;;
52542;SDS011;38449;52.696;6.186;2022-07-21T06:41:12;25.40;;;22.38;;
52542;SDS011;38449;52.696;6.186;2022-07-21T06:43:38;25.25;;;22.65;;
52542;SDS011;38449;52.696;6.186;2022-07-21T06:46:04;28.17;;;23.30;;
52542;SDS011;38449;52.696;6.186;2022-07-21T06:48:30;26.35;;;23.45;;
52542;SDS011;38449;52.696;6.186;2022-07-21T06:50:56;26.02;;;23.10;;
52542;SDS011;38449;52.696;6.186;2022-07-21T06:53:22;27.10;;;24.27;;
52542;SDS011;38449;52.696;6.186;2022-07-21T06:55:49;27.35;;;24.33;;
52542;SDS011;38449;52.696;6.186;2022-07-21T06:58:18;28.98;;;25.77;;
52542;SDS011;38449;52.696;6.186;2022-07-21T07:00:47;28.85;;;25.02;;
52542;SDS011;38449;52.696;6.186;2022-07-21T07:03:14;28.00;;;24.98;;
52542;SDS011;38449;52.696;6.186;2022-07-21T07:05:41;31.60;;;26.42;;
52542;SDS011;38449;52.696;6.186;2022-07-21T07:08:08;30.95;;;26.65;;
52542;SDS011;38449;52.696;6.186;2022-07-21T07:10:34;28.00;;;25.08;;
52542;SDS011;38449;52.696;6.186;2022-07-21T07:13:00;30.95;;;26.02;;
52542;SDS011;38449;52.696;6.186;2022-07-21T07:15:27;32.10;;;27.98;;
52542;SDS011;38449;52.696;6.186;2022-07-21T07:17:53;32.55;;;29.02;;
52542;SDS011;38449;52.696;6.186;2022-07-21T07:20:20;32.70;;;27.73;;
52542;SDS011;38449;52.696;6.186;2022-07-21T07:22:46;32.95;;;27.70;;
52542;SDS011;38449;52.696;6.186;2022-07-21T07:25:13;31.23;;;27.52;;
52542;SDS011;38449;52.696;6.186;2022-07-21T07:27:49;30.85;;;27.42;;
52542;SDS011;38449;52.696;6.186;2022-07-21T07:30:17;31.50;;;27.55;;
52542;SDS011;38449;52.696;6.186;2022-07-21T07:32:44;31.13;;;26.55;;
52542;SDS011;38449;52.696;6.186;2022-07-21T07:35:12;30.88;;;27.25;;
52542;SDS011;38449;52.696;6.186;2022-07-21T07:37:38;31.52;;;28.08;;
52542;SDS011;38449;52.696;6.186;2022-07-21T07:40:07;30.75;;;27.45;;
52542;SDS011;38449;52.696;6.186;2022-07-21T07:42:35;31.15;;;27.85;;
52542;SDS011;38449;52.696;6.186;2022-07-21T07:45:03;31.15;;;27.75;;
52542;SDS011;38449;52.696;6.186;2022-07-21T07:47:31;34.97;;;29.17;;
52542;SDS011;38449;52.696;6.186;2022-07-21T07:49:57;33.25;;;28.10;;
52542;SDS011;38449;52.696;6.186;2022-07-21T07:52:23;35.22;;;30.77;;
52542;SDS011;38449;52.696;6.186;2022-07-21T07:54:50;39.25;;;32.83;;
52542;SDS011;38449;52.696;6.186;2022-07-21T07:57:15;41.55;;;33.30;;
52542;SDS011;38449;52.696;6.186;2022-07-21T07:59:41;40.83;;;32.97;;
52542;SDS011;38449;52.696;6.186;2022-07-21T08:02:07;39.75;;;35.33;;
52542;SDS011;38449;52.696;6.186;2022-07-21T08:04:33;40.92;;;34.40;;
52542;SDS011;38449;52.696;6.186;2022-07-21T08:07:03;40.17;;;34.85;;
52542;SDS011;38449;52.696;6.186;2022-07-21T08:09:29;40.38;;;34.60;;
52542;SDS011;38449;52.696;6.186;2022-07-21T08:11:55;41.10;;;33.92;;
52542;SDS011;38449;52.696;6.186;2022-07-21T08:14:20;36.88;;;32.80;;
52542;SDS011;38449;52.696;6.186;2022-07-21T08:16:47;37.08;;;31.98;;
52542;SDS011;38449;52.696;6.186;2022-07-21T08:19:13;36.97;;;32.25;;
52542;SDS011;38449;52.696;6.186;2022-07-21T08:21:38;36.00;;;32.10;;
52542;SDS011;38449;52.696;6.186;2022-07-21T08:24:04;34.05;;;30.25;;
52542;SDS011;38449;52.696;6.186;2022-07-21T08:26:30;37.85;;;32.05;;
52542;SDS011;38449;52.696;6.186;2022-07-21T08:28:57;36.50;;;31.02;;
52542;SDS011;38449;52.696;6.186;2022-07-21T08:31:23;35.05;;;30.02;;
52542;SDS011;38449;52.696;6.186;2022-07-21T08:33:49;34.78;;;28.90;;
52542;SDS011;38449;52.696;6.186;2022-07-21T08:36:16;33.50;;;28.42;;
52542;SDS011;38449;52.696;6.186;2022-07-21T08:38:42;32.75;;;28.08;;
52542;SDS011;38449;52.696;6.186;2022-07-21T08:41:08;34.25;;;27.65;;
52542;SDS011;38449;52.696;6.186;2022-07-21T08:43:35;30.50;;;26.92;;
52542;SDS011;38449;52.696;6.186;2022-07-21T08:46:01;29.60;;;26.33;;
52542;SDS011;38449;52.696;6.186;2022-07-21T08:48:27;30.45;;;26.02;;
52542;SDS011;38449;52.696;6.186;2022-07-21T08:50:55;32.28;;;27.90;;
52542;SDS011;38449;52.696;6.186;2022-07-21T08:53:21;31.38;;;27.60;;
52542;SDS011;38449;52.696;6.186;2022-07-21T08:55:48;30.42;;;26.65;;
52542;SDS011;38449;52.696;6.186;2022-07-21T08:58:14;32.40;;;26.70;;
52542;SDS011;38449;52.696;6.186;2022-07-21T09:00:45;31.05;;;26.85;;
52542;SDS011;38449;52.696;6.186;2022-07-21T09:03:19;29.00;;;24.42;;
52542;SDS011;38449;52.696;6.186;2022-07-21T09:06:00;27.83;;;24.92;;
52542;SDS011;38449;52.696;6.186;2022-07-21T09:08:30;30.13;;;26.85;;
52542;SDS011;38449;52.696;6.186;2022-07-21T09:14:07;28.42;;;25.17;;
52542;SDS011;38449;52.696;6.186;2022-07-21T09:16:39;29.42;;;26.27;;
52542;SDS011;38449;52.696;6.186;2022-07-21T09:19:15;29.80;;;25.48;;
52542;SDS011;38449;52.696;6.186;2022-07-21T09:21:40;28.13;;;25.15;;
52542;SDS011;38449;52.696;6.186;2022-07-21T09:24:18;27.83;;;23.92;;
52542;SDS011;38449;52.696;6.186;2022-07-21T09:26:59;28.30;;;22.60;;
52542;SDS011;38449;52.696;6.186;2022-07-21T09:29:43;30.08;;;22.20;;
52542;SDS011;38449;52.696;6.186;2022-07-21T09:32:11;23.67;;;21.10;;
52542;SDS011;38449;52.696;6.186;2022-07-21T09:34:47;24.45;;;21.35;;
52542;SDS011;38449;52.696;6.186;2022-07-21T09:37:15;26.95;;;24.00;;
52542;SDS011;38449;52.696;6.186;2022-07-21T09:39:46;30.13;;;25.70;;
52542;SDS011;38449;52.696;6.186;2022-07-21T09:42:14;30.67;;;27.35;;
52542;SDS011;38449;52.696;6.186;2022-07-21T09:44:50;32.53;;;27.58;;
52542;SDS011;38449;52.696;6.186;2022-07-21T09:47:19;28.98;;;25.92;;
52542;SDS011;38449;52.696;6.186;2022-07-21T09:49:46;31.42;;;27.88;;
52542;SDS011;38449;52.696;6.186;2022-07-21T09:52:23;30.70;;;27.42;;
52542;SDS011;38449;52.696;6.186;2022-07-21T09:57:23;33.00;;;29.40;;
52542;SDS011;38449;52.696;6.186;2022-07-21T09:59:49;34.45;;;30.77;;
52542;SDS011;38449;52.696;6.186;2022-07-21T10:02:17;35.38;;;31.65;;
52542;SDS011;38449;52.696;6.186;2022-07-21T10:04:46;34.42;;;30.80;;
52542;SDS011;38449;52.696;6.186;2022-07-21T10:07:16;35.42;;;31.55;;
52542;SDS011;38449;52.696;6.186;2022-07-21T10:09:43;33.35;;;29.73;;
52542;SDS011;38449;52.696;6.186;2022-07-21T10:12:09;35.78;;;32.08;;
52542;SDS011;38449;52.696;6.186;2022-07-21T10:14:35;32.95;;;29.52;;
52542;SDS011;38449;52.696;6.186;2022-07-21T10:17:01;31.40;;;28.02;;
52542;SDS011;38449;52.696;6.186;2022-07-21T10:19:28;34.35;;;29.85;;
52542;SDS011;38449;52.696;6.186;2022-07-21T10:25:00;30.90;;;27.30;;
52542;SDS011;38449;52.696;6.186;2022-07-21T10:27:27;31.50;;;27.25;;
52542;SDS011;38449;52.696;6.186;2022-07-21T10:29:53;32.40;;;27.27;;
52542;SDS011;38449;52.696;6.186;2022-07-21T10:32:35;30.92;;;26.42;;
52542;SDS011;38449;52.696;6.186;2022-07-21T10:35:38;29.35;;;26.35;;
52542;SDS011;38449;52.696;6.186;2022-07-21T10:37:55;31.10;;;27.80;;
52542;SDS011;38449;52.696;6.186;2022-07-21T10:43:48;28.23;;;24.70;;
52542;SDS011;38449;52.696;6.186;2022-07-21T10:45:48;27.15;;;22.80;;
52542;SDS011;38449;52.696;6.186;2022-07-21T10:48:46;29.45;;;22.48;;
52542;SDS011;38449;52.696;6.186;2022-07-21T10:51:13;23.00;;;20.63;;
52542;SDS011;38449;52.696;6.186;2022-07-21T10:53:41;24.30;;;20.23;;
52542;SDS011;38449;52.696;6.186;2022-07-21T10:56:26;25.48;;;19.80;;
52542;SDS011;38449;52.696;6.186;2022-07-21T10:58:53;24.45;;;21.83;;
52542;SDS011;38449;52.696;6.186;2022-07-21T11:01:21;24.73;;;21.00;;
52542;SDS011;38449;52.696;6.186;2022-07-21T11:06:36;21.88;;;19.55;;
52542;SDS011;38449;52.696;6.186;2022-07-21T11:11:29;21.65;;;19.33;;
52542;SDS011;38449;52.696;6.186;2022-07-21T11:25:03;17.42;;;15.50;;
52542;SDS011;38449;52.696;6.186;2022-07-21T11:27:32;16.95;;;15.00;;
52542;SDS011;38449;52.696;6.186;2022-07-21T11:30:01;16.13;;;13.57;;
52542;SDS011;38449;52.696;6.186;2022-07-21T11:32:31;12.77;;;10.75;;
52542;SDS011;38449;52.696;6.186;2022-07-21T11:34:57;9.07;;;8.10;;
52542;SDS011;38449;52.696;6.186;2022-07-21T11:37:29;8.63;;;7.72;;
52542;SDS011;38449;52.696;6.186;2022-07-21T11:40:00;9.50;;;7.70;;
52542;SDS011;38449;52.696;6.186;2022-07-21T11:42:37;10.00;;;8.20;;
52542;SDS011;38449;52.696;6.186;2022-07-21T11:45:04;12.20;;;8.52;;
52542;SDS011;38449;52.696;6.186;2022-07-21T11:47:31;11.52;;;9.43;;
52542;SDS011;38449;52.696;6.186;2022-07-21T11:49:59;10.85;;;9.75;;
52542;SDS011;38449;52.696;6.186;2022-07-21T11:52:45;13.82;;;12.43;;
52542;SDS011;38449;52.696;6.186;2022-07-21T11:55:12;14.13;;;12.45;;
52542;SDS011;38449;52.696;6.186;2022-07-21T11:57:41;14.40;;;12.90;;
52542;SDS011;38449;52.696;6.186;2022-07-21T12:00:08;15.70;;;14.10;;
52542;SDS011;38449;52.696;6.186;2022-07-21T12:02:34;15.70;;;13.93;;
52542;SDS011;38449;52.696;6.186;2022-07-21T12:05:00;17.25;;;15.45;;
52542;SDS011;38449;52.696;6.186;2022-07-21T12:07:49;16.92;;;14.88;;
52542;SDS011;38449;52.696;6.186;2022-07-21T12:10:23;16.27;;;14.55;;
52542;SDS011;38449;52.696;6.186;2022-07-21T12:12:51;16.67;;;14.70;;
52542;SDS011;38449;52.696;6.186;2022-07-21T12:15:23;25.90;;;18.35;;
52542;SDS011;38449;52.696;6.186;2022-07-21T12:17:54;13.95;;;12.00;;
52542;SDS011;38449;52.696;6.186;2022-07-21T12:22:50;8.02;;;6.25;;
52542;SDS011;38449;52.696;6.186;2022-07-21T12:25:17;8.70;;;5.93;;
52542;SDS011;38449;52.696;6.186;2022-07-21T12:27:54;6.47;;;5.38;;
52542;SDS011;38449;52.696;6.186;2022-07-21T12:35:44;6.28;;;5.43;;
52542;SDS011;38449;52.696;6.186;2022-07-21T12:38:14;6.45;;;5.15;;
52542;SDS011;38449;52.696;6.186;2022-07-21T12:40:48;7.43;;;5.95;;
52542;SDS011;38449;52.696;6.186;2022-07-21T12:43:21;8.55;;;6.85;;
52542;SDS011;38449;52.696;6.186;2022-07-21T12:46:32;8.02;;;6.60;;
52542;SDS011;38449;52.696;6.186;2022-07-21T12:48:37;8.18;;;6.95;;
52542;SDS011;38449;52.696;6.186;2022-07-21T12:51:05;8.80;;;7.38;;
52542;SDS011;38449;52.696;6.186;2022-07-21T12:53:37;9.45;;;7.95;;
52542;SDS011;38449;52.696;6.186;2022-07-21T12:56:08;11.82;;;7.97;;
52542;SDS011;38449;52.696;6.186;2022-07-21T12:58:35;8.55;;;7.65;;
52542;SDS011;38449;52.696;6.186;2022-07-21T13:01:02;10.45;;;8.02;;
52542;SDS011;38449;52.696;6.186;2022-07-21T13:03:29;9.50;;;8.18;;
52542;SDS011;38449;52.696;6.186;2022-07-21T13:05:56;10.77;;;8.88;;
52542;SDS011;38449;52.696;6.186;2022-07-21T13:08:21;9.00;;;8.10;;
52542;SDS011;38449;52.696;6.186;2022-07-21T13:10:47;8.75;;;7.85;;
52542;SDS011;38449;52.696;6.186;2022-07-21T13:13:13;9.77;;;7.22;;
52542;SDS011;38449;52.696;6.186;2022-07-21T13:15:38;9.45;;;6.40;;
52542;SDS011;38449;52.696;6.186;2022-07-21T13:18:04;7.13;;;5.55;;
52542;SDS011;38449;52.696;6.186;2022-07-21T13:20:30;7.20;;;5.38;;
52542;SDS011;38449;52.696;6.186;2022-07-21T13:22:55;7.00;;;5.10;;
52542;SDS011;38449;52.696;6.186;2022-07-21T13:25:21;9.57;;;5.57;;
52542;SDS011;38449;52.696;6.186;2022-07-21T13:27:47;6.57;;;4.95;;
52542;SDS011;38449;52.696;6.186;2022-07-21T13:30:13;6.13;;;5.25;;
52542;SDS011;38449;52.696;6.186;2022-07-21T13:32:38;6.57;;;5.30;;
52542;SDS011;38449;52.696;6.186;2022-07-21T13:35:05;6.10;;;5.20;;
52542;SDS011;38449;52.696;6.186;2022-07-21T13:37:32;6.70;;;4.82;;
52542;SDS011;38449;52.696;6.186;2022-07-21T13:39:58;5.68;;;4.60;;
52542;SDS011;38449;52.696;6.186;2022-07-21T13:42:25;7.18;;;5.53;;
52542;SDS011;38449;52.696;6.186;2022-07-21T13:44:51;5.85;;;4.50;;
52542;SDS011;38449;52.696;6.186;2022-07-21T13:47:16;7.22;;;4.90;;
52542;SDS011;38449;52.696;6.186;2022-07-21T13:49:42;6.50;;;4.55;;
52542;SDS011;38449;52.696;6.186;2022-07-21T13:52:08;5.05;;;4.18;;
52542;SDS011;38449;52.696;6.186;2022-07-21T13:54:33;5.72;;;4.20;;
52542;SDS011;38449;52.696;6.186;2022-07-21T13:56:59;5.60;;;4.30;;
52542;SDS011;38449;52.696;6.186;2022-07-21T13:59:25;6.13;;;4.60;;
52542;SDS011;38449;52.696;6.186;2022-07-21T14:01:53;6.93;;;4.65;;
52542;SDS011;38449;52.696;6.186;2022-07-21T14:04:18;5.75;;;4.40;;
52542;SDS011;38449;52.696;6.186;2022-07-21T14:06:44;5.85;;;4.30;;
52542;SDS011;38449;52.696;6.186;2022-07-21T14:09:12;5.95;;;4.80;;
52542;SDS011;38449;52.696;6.186;2022-07-21T14:11:38;6.28;;;4.93;;
52542;SDS011;38449;52.696;6.186;2022-07-21T14:14:04;6.93;;;4.68;;
52542;SDS011;38449;52.696;6.186;2022-07-21T14:16:30;5.07;;;4.35;;
52542;SDS011;38449;52.696;6.186;2022-07-21T14:18:56;7.65;;;5.05;;
52542;SDS011;38449;52.696;6.186;2022-07-21T14:21:22;5.15;;;4.00;;
52542;SDS011;38449;52.696;6.186;2022-07-21T14:23:47;5.32;;;4.32;;
52542;SDS011;38449;52.696;6.186;2022-07-21T14:26:36;5.60;;;4.35;;
52542;SDS011;38449;52.696;6.186;2022-07-21T14:29:03;5.53;;;4.63;;
52542;SDS011;38449;52.696;6.186;2022-07-21T14:31:32;4.93;;;4.43;;
52542;SDS011;38449;52.696;6.186;2022-07-21T14:33:59;5.30;;;4.78;;
52542;SDS011;38449;52.696;6.186;2022-07-21T14:36:26;6.03;;;4.55;;
52542;SDS011;38449;52.696;6.186;2022-07-21T14:38:52;7.63;;;4.68;;
52542;SDS011;38449;52.696;6.186;2022-07-21T14:41:18;5.63;;;4.50;;
52542;SDS011;38449;52.696;6.186;2022-07-21T14:43:44;5.38;;;4.43;;
52542;SDS011;38449;52.696;6.186;2022-07-21T14:46:10;5.60;;;4.85;;
52542;SDS011;38449;52.696;6.186;2022-07-21T14:48:36;6.35;;;4.32;;
52542;SDS011;38449;52.696;6.186;2022-07-21T14:51:02;5.55;;;4.70;;
52542;SDS011;38449;52.696;6.186;2022-07-21T14:53:28;5.78;;;4.70;;
52542;SDS011;38449;52.696;6.186;2022-07-21T14:55:53;6.55;;;4.68;;
52542;SDS011;38449;52.696;6.186;2022-07-21T14:58:19;5.47;;;4.40;;
52542;SDS011;38449;52.696;6.186;2022-07-21T15:00:45;8.05;;;5.07;;
52542;SDS011;38449;52.696;6.186;2022-07-21T15:03:11;7.38;;;5.07;;
52542;SDS011;38449;52.696;6.186;2022-07-21T15:05:36;6.22;;;4.85;;